sensor_id;sensor_type;location;lat;lon;timestamp;temperature;humidity
20498;DHT22;10407;53.238;10.448;2022-11-14T00:00:53;7.70;99.90
20498;DHT22;10407;53.238;10.448;2022-11-14T00:03:20;7.50;99.90
20498;DHT22;10407;53.238;10.448;2022-11-14T00:05:48;7.40;99.90
20498;DHT22;10407;53.238;10.448;2022-11-14T00:08:22;7.50;99.90
20498;DHT22;10407;53.238;10.448;2022-11-14T00:10:47;7.50;99.90
20498;DHT22;10407;53.238;10.448;2022-11-14T00:13:16;7.70;99.90
20498;DHT22;10407;53.238;10.448;2022-11-14T00:15:47;7.70;99.90
20498;DHT22;10407;53.238;10.448;2022-11-14T00:18:17;7.70;99.90
20498;DHT22;10407;53.238;10.448;2022-11-14T00:20:47;7.60;99.90
20498;DHT22;10407;53.238;10.448;2022-11-14T00:23:15;7.50;99.90
20498;DHT22;10407;53.238;10.448;2022-11-14T00:25:44;7.50;99.90
20498;DHT22;10407;53.238;10.448;2022-11-14T00:28:12;7.50;99.90
20498;DHT22;10407;53.238;10.448;2022-11-14T00:30:40;7.40;99.90
20498;DHT22;10407;53.238;10.448;2022-11-14T00:33:07;7.50;99.90
20498;DHT22;10407;53.238;10.448;2022-11-14T00:35:35;7.60;99.90
20498;DHT22;10407;53.238;10.448;2022-11-14T00:38:03;7.60;99.90
20498;DHT22;10407;53.238;10.448;2022-11-14T00:40:30;7.40;99.90
20498;DHT22;10407;53.238;10.448;2022-11-14T00:42:58;7.40;99.90
20498;DHT22;10407;53.238;10.448;2022-11-14T00:45:25;7.40;99.90
20498;DHT22;10407;53.238;10.448;2022-11-14T00:47:53;7.50;99.90
20498;DHT22;10407;53.238;10.448;2022-11-14T00:50:20;7.50;99.90
20498;DHT22;10407;53.238;10.448;2022-11-14T00:52:48;7.50;99.90
20498;DHT22;10407;53.238;10.448;2022-11-14T00:55:15;7.60;99.90
20498;DHT22;10407;53.238;10.448;2022-11-14T00:57:43;7.70;99.90
20498;DHT22;10407;53.238;10.448;2022-11-14T01:00:12;7.70;99.90
20498;DHT22;10407;53.238;10.448;2022-11-14T01:02:40;7.40;99.90
20498;DHT22;10407;53.238;10.448;2022-11-14T01:05:07;7.60;99.90
20498;DHT22;10407;53.238;10.448;2022-11-14T01:07:35;7.70;99.90
20498;DHT22;10407;53.238;10.448;2022-11-14T01:10:03;7.70;99.90
20498;DHT22;10407;53.238;10.448;2022-11-14T01:12:32;7.50;99.90
20498;DHT22;10407;53.238;10.448;2022-11-14T01:14:59;7.60;99.90
20498;DHT22;10407;53.238;10.448;2022-11-14T01:17:27;7.50;99.90
20498;DHT22;10407;53.238;10.448;2022-11-14T01:19:54;7.50;99.90
20498;DHT22;10407;53.238;10.448;2022-11-14T01:22:22;7.50;99.90
20498;DHT22;10407;53.238;10.448;2022-11-14T01:24:49;7.60;99.90
20498;DHT22;10407;53.238;10.448;2022-11-14T01:27:17;7.60;99.90
20498;DHT22;10407;53.238;10.448;2022-11-14T01:29:44;7.40;99.90
20498;DHT22;10407;53.238;10.448;2022-11-14T01:32:12;7.40;99.90
20498;DHT22;10407;53.238;10.448;2022-11-14T01:34:39;7.60;99.90
20498;DHT22;10407;53.238;10.448;2022-11-14T01:37:07;7.60;99.90
20498;DHT22;10407;53.238;10.448;2022-11-14T01:39:34;7.60;99.90
20498;DHT22;10407;53.238;10.448;2022-11-14T01:42:02;7.50;99.90
20498;DHT22;10407;53.238;10.448;2022-11-14T01:44:48;7.40;99.90
20498;DHT22;10407;53.238;10.448;2022-11-14T01:47:21;7.40;99.90
20498;DHT22;10407;53.238;10.448;2022-11-14T01:49:53;7.50;99.90
20498;DHT22;10407;53.238;10.448;2022-11-14T01:52:29;7.60;99.90
20498;DHT22;10407;53.238;10.448;2022-11-14T01:54:54;7.40;99.90
20498;DHT22;10407;53.238;10.448;2022-11-14T01:57:26;7.40;99.90
20498;DHT22;10407;53.238;10.448;2022-11-14T01:59:56;7.30;99.90
20498;DHT22;10407;53.238;10.448;2022-11-14T02:02:25;7.30;99.90
20498;DHT22;10407;53.238;10.448;2022-11-14T02:05:03;7.40;99.90
20498;DHT22;10407;53.238;10.448;2022-11-14T02:07:32;7.40;99.90
20498;DHT22;10407;53.238;10.448;2022-11-14T02:10:03;7.50;99.90
20498;DHT22;10407;53.238;10.448;2022-11-14T02:12:30;7.20;99.90
20498;DHT22;10407;53.238;10.448;2022-11-14T02:14:58;7.40;99.90
20498;DHT22;10407;53.238;10.448;2022-11-14T02:17:27;7.50;99.90
20498;DHT22;10407;53.238;10.448;2022-11-14T02:22:31;7.30;99.90
20498;DHT22;10407;53.238;10.448;2022-11-14T02:24:59;7.30;99.90
20498;DHT22;10407;53.238;10.448;2022-11-14T02:27:26;7.40;99.90
20498;DHT22;10407;53.238;10.448;2022-11-14T02:29:53;7.40;99.90
20498;DHT22;10407;53.238;10.448;2022-11-14T02:32:21;7.30;99.90
20498;DHT22;10407;53.238;10.448;2022-11-14T02:34:49;7.40;99.90
20498;DHT22;10407;53.238;10.448;2022-11-14T02:37:16;7.40;99.90
20498;DHT22;10407;53.238;10.448;2022-11-14T02:39:44;7.40;99.90
20498;DHT22;10407;53.238;10.448;2022-11-14T02:42:11;7.40;99.90
20498;DHT22;10407;53.238;10.448;2022-11-14T02:44:39;7.50;99.90
20498;DHT22;10407;53.238;10.448;2022-11-14T02:47:06;7.30;99.90
20498;DHT22;10407;53.238;10.448;2022-11-14T02:49:34;7.30;99.90
20498;DHT22;10407;53.238;10.448;2022-11-14T02:52:01;7.40;99.90
20498;DHT22;10407;53.238;10.448;2022-11-14T02:54:29;7.50;99.90
20498;DHT22;10407;53.238;10.448;2022-11-14T02:56:56;7.60;99.90
20498;DHT22;10407;53.238;10.448;2022-11-14T02:59:24;7.50;99.90
20498;DHT22;10407;53.238;10.448;2022-11-14T03:01:51;7.40;99.90
20498;DHT22;10407;53.238;10.448;2022-11-14T03:04:19;7.40;99.90
20498;DHT22;10407;53.238;10.448;2022-11-14T03:06:46;7.30;99.90
20498;DHT22;10407;53.238;10.448;2022-11-14T03:09:14;7.40;99.90
20498;DHT22;10407;53.238;10.448;2022-11-14T03:11:43;7.30;99.90
20498;DHT22;10407;53.238;10.448;2022-11-14T03:14:11;7.40;99.90
20498;DHT22;10407;53.238;10.448;2022-11-14T03:16:38;7.50;99.90
20498;DHT22;10407;53.238;10.448;2022-11-14T03:19:06;7.40;99.90
20498;DHT22;10407;53.238;10.448;2022-11-14T03:21:33;7.50;99.90
20498;DHT22;10407;53.238;10.448;2022-11-14T03:24:01;7.50;99.90
20498;DHT22;10407;53.238;10.448;2022-11-14T03:26:28;7.50;99.90
20498;DHT22;10407;53.238;10.448;2022-11-14T03:28:56;7.50;99.90
20498;DHT22;10407;53.238;10.448;2022-11-14T03:31:23;7.50;99.90
20498;DHT22;10407;53.238;10.448;2022-11-14T03:33:51;7.40;99.90
20498;DHT22;10407;53.238;10.448;2022-11-14T03:36:18;7.50;99.90
20498;DHT22;10407;53.238;10.448;2022-11-14T03:38:47;7.50;99.90
20498;DHT22;10407;53.238;10.448;2022-11-14T03:41:16;7.40;99.90
20498;DHT22;10407;53.238;10.448;2022-11-14T03:43:44;7.40;99.90
20498;DHT22;10407;53.238;10.448;2022-11-14T03:46:11;7.40;99.90
20498;DHT22;10407;53.238;10.448;2022-11-14T03:48:39;7.40;99.90
20498;DHT22;10407;53.238;10.448;2022-11-14T03:51:06;7.40;99.90
20498;DHT22;10407;53.238;10.448;2022-11-14T03:53:34;7.40;99.90
20498;DHT22;10407;53.238;10.448;2022-11-14T03:56:01;7.50;99.90
20498;DHT22;10407;53.238;10.448;2022-11-14T03:58:29;7.50;99.90
20498;DHT22;10407;53.238;10.448;2022-11-14T04:00:56;7.50;99.90
20498;DHT22;10407;53.238;10.448;2022-11-14T04:03:24;7.40;99.90
20498;DHT22;10407;53.238;10.448;2022-11-14T04:05:52;7.40;99.90
20498;DHT22;10407;53.238;10.448;2022-11-14T04:08:19;7.50;99.90
20498;DHT22;10407;53.238;10.448;2022-11-14T04:10:47;7.50;99.90
20498;DHT22;10407;53.238;10.448;2022-11-14T04:13:15;7.30;99.90
20498;DHT22;10407;53.238;10.448;2022-11-14T04:15:43;7.40;99.90
20498;DHT22;10407;53.238;10.448;2022-11-14T04:18:10;7.30;99.90
20498;DHT22;10407;53.238;10.448;2022-11-14T04:20:38;7.20;99.90
20498;DHT22;10407;53.238;10.448;2022-11-14T04:23:05;7.20;99.90
20498;DHT22;10407;53.238;10.448;2022-11-14T04:25:33;7.30;99.90
20498;DHT22;10407;53.238;10.448;2022-11-14T04:28:01;7.40;99.90
20498;DHT22;10407;53.238;10.448;2022-11-14T04:30:29;7.30;99.90
20498;DHT22;10407;53.238;10.448;2022-11-14T04:32:56;7.40;99.90
20498;DHT22;10407;53.238;10.448;2022-11-14T04:35:24;7.40;99.90
20498;DHT22;10407;53.238;10.448;2022-11-14T04:37:51;7.50;99.90
20498;DHT22;10407;53.238;10.448;2022-11-14T04:40:19;7.50;99.90
20498;DHT22;10407;53.238;10.448;2022-11-14T04:42:47;7.40;99.90
20498;DHT22;10407;53.238;10.448;2022-11-14T04:45:15;7.50;99.90
20498;DHT22;10407;53.238;10.448;2022-11-14T04:47:43;7.50;99.90
20498;DHT22;10407;53.238;10.448;2022-11-14T04:50:10;7.40;99.90
20498;DHT22;10407;53.238;10.448;2022-11-14T04:52:38;7.50;99.90
20498;DHT22;10407;53.238;10.448;2022-11-14T04:55:06;7.50;99.90
20498;DHT22;10407;53.238;10.448;2022-11-14T04:57:33;7.40;99.90
20498;DHT22;10407;53.238;10.448;2022-11-14T05:00:01;7.20;99.90
20498;DHT22;10407;53.238;10.448;2022-11-14T05:02:30;7.20;99.90
20498;DHT22;10407;53.238;10.448;2022-11-14T05:04:58;7.30;99.90
20498;DHT22;10407;53.238;10.448;2022-11-14T05:07:25;7.40;99.90
20498;DHT22;10407;53.238;10.448;2022-11-14T05:09:53;7.40;99.90
20498;DHT22;10407;53.238;10.448;2022-11-14T05:12:21;7.30;99.90
20498;DHT22;10407;53.238;10.448;2022-11-14T05:14:48;7.30;99.90
20498;DHT22;10407;53.238;10.448;2022-11-14T05:17:16;7.30;99.90
20498;DHT22;10407;53.238;10.448;2022-11-14T05:19:43;7.30;99.90
20498;DHT22;10407;53.238;10.448;2022-11-14T05:22:11;7.30;99.90
20498;DHT22;10407;53.238;10.448;2022-11-14T05:24:38;7.40;99.90
20498;DHT22;10407;53.238;10.448;2022-11-14T05:27:06;7.40;99.90
20498;DHT22;10407;53.238;10.448;2022-11-14T05:29:33;7.30;99.90
20498;DHT22;10407;53.238;10.448;2022-11-14T05:32:01;7.30;99.90
20498;DHT22;10407;53.238;10.448;2022-11-14T05:34:28;7.30;99.90
20498;DHT22;10407;53.238;10.448;2022-11-14T05:36:56;7.40;99.90
20498;DHT22;10407;53.238;10.448;2022-11-14T05:39:23;7.30;99.90
20498;DHT22;10407;53.238;10.448;2022-11-14T05:41:51;7.20;99.90
20498;DHT22;10407;53.238;10.448;2022-11-14T05:44:18;7.20;99.90
20498;DHT22;10407;53.238;10.448;2022-11-14T05:46:46;7.20;99.90
20498;DHT22;10407;53.238;10.448;2022-11-14T05:49:13;7.30;99.90
20498;DHT22;10407;53.238;10.448;2022-11-14T05:51:41;7.20;99.90
20498;DHT22;10407;53.238;10.448;2022-11-14T05:54:08;7.20;99.90
20498;DHT22;10407;53.238;10.448;2022-11-14T05:56:36;7.20;99.90
20498;DHT22;10407;53.238;10.448;2022-11-14T05:59:03;7.20;99.90
20498;DHT22;10407;53.238;10.448;2022-11-14T06:01:31;7.30;99.90
20498;DHT22;10407;53.238;10.448;2022-11-14T06:03:59;7.30;99.90
20498;DHT22;10407;53.238;10.448;2022-11-14T06:06:26;7.20;99.90
20498;DHT22;10407;53.238;10.448;2022-11-14T06:08:54;7.10;99.90
20498;DHT22;10407;53.238;10.448;2022-11-14T06:11:21;7.00;99.90
20498;DHT22;10407;53.238;10.448;2022-11-14T06:13:48;7.00;99.90
20498;DHT22;10407;53.238;10.448;2022-11-14T06:16:18;7.00;99.90
20498;DHT22;10407;53.238;10.448;2022-11-14T06:18:45;6.90;99.90
20498;DHT22;10407;53.238;10.448;2022-11-14T06:21:18;6.90;99.90
20498;DHT22;10407;53.238;10.448;2022-11-14T06:23:46;6.90;99.90
20498;DHT22;10407;53.238;10.448;2022-11-14T06:26:28;7.00;99.90
20498;DHT22;10407;53.238;10.448;2022-11-14T06:28:56;6.80;99.90
20498;DHT22;10407;53.238;10.448;2022-11-14T06:31:25;6.80;99.90
20498;DHT22;10407;53.238;10.448;2022-11-14T06:33:53;6.90;99.90
20498;DHT22;10407;53.238;10.448;2022-11-14T06:36:22;6.60;99.90
20498;DHT22;10407;53.238;10.448;2022-11-14T06:38:50;6.70;99.90
20498;DHT22;10407;53.238;10.448;2022-11-14T06:41:19;6.70;99.90
20498;DHT22;10407;53.238;10.448;2022-11-14T06:43:53;6.70;99.90
20498;DHT22;10407;53.238;10.448;2022-11-14T06:46:21;6.80;99.90
20498;DHT22;10407;53.238;10.448;2022-11-14T06:48:49;6.80;99.90
20498;DHT22;10407;53.238;10.448;2022-11-14T06:51:18;6.90;99.90
20498;DHT22;10407;53.238;10.448;2022-11-14T06:53:45;6.90;99.90
20498;DHT22;10407;53.238;10.448;2022-11-14T06:56:15;6.90;99.90
20498;DHT22;10407;53.238;10.448;2022-11-14T06:58:45;6.80;99.90
20498;DHT22;10407;53.238;10.448;2022-11-14T07:01:14;6.90;99.90
20498;DHT22;10407;53.238;10.448;2022-11-14T07:03:43;6.90;99.90
20498;DHT22;10407;53.238;10.448;2022-11-14T07:06:16;6.70;99.90
20498;DHT22;10407;53.238;10.448;2022-11-14T07:08:44;6.90;99.90
20498;DHT22;10407;53.238;10.448;2022-11-14T07:11:13;6.80;99.90
20498;DHT22;10407;53.238;10.448;2022-11-14T07:13:58;7.00;99.90
20498;DHT22;10407;53.238;10.448;2022-11-14T07:16:31;7.10;99.90
20498;DHT22;10407;53.238;10.448;2022-11-14T07:19:02;7.10;99.90
20498;DHT22;10407;53.238;10.448;2022-11-14T07:21:30;7.00;99.90
20498;DHT22;10407;53.238;10.448;2022-11-14T07:23:58;6.90;99.90
20498;DHT22;10407;53.238;10.448;2022-11-14T07:26:25;6.90;99.90
20498;DHT22;10407;53.238;10.448;2022-11-14T07:28:53;6.80;99.90
20498;DHT22;10407;53.238;10.448;2022-11-14T07:31:20;7.00;99.90
20498;DHT22;10407;53.238;10.448;2022-11-14T07:33:48;6.90;99.90
20498;DHT22;10407;53.238;10.448;2022-11-14T07:36:16;7.00;99.90
20498;DHT22;10407;53.238;10.448;2022-11-14T07:38:43;7.00;99.90
20498;DHT22;10407;53.238;10.448;2022-11-14T07:41:13;7.00;99.90
20498;DHT22;10407;53.238;10.448;2022-11-14T07:43:41;6.80;99.90
20498;DHT22;10407;53.238;10.448;2022-11-14T07:46:14;7.00;99.90
20498;DHT22;10407;53.238;10.448;2022-11-14T07:48:43;7.10;99.90
20498;DHT22;10407;53.238;10.448;2022-11-14T07:51:18;7.10;99.90
20498;DHT22;10407;53.238;10.448;2022-11-14T07:53:46;6.90;99.90
20498;DHT22;10407;53.238;10.448;2022-11-14T07:56:13;7.10;99.90
20498;DHT22;10407;53.238;10.448;2022-11-14T07:58:42;7.10;99.90
20498;DHT22;10407;53.238;10.448;2022-11-14T08:01:11;6.90;99.90
20498;DHT22;10407;53.238;10.448;2022-11-14T08:03:39;7.00;99.90
20498;DHT22;10407;53.238;10.448;2022-11-14T08:06:10;6.80;99.90
20498;DHT22;10407;53.238;10.448;2022-11-14T08:08:38;7.00;99.90
20498;DHT22;10407;53.238;10.448;2022-11-14T08:11:06;6.90;99.90
20498;DHT22;10407;53.238;10.448;2022-11-14T08:13:34;7.20;99.90
20498;DHT22;10407;53.238;10.448;2022-11-14T08:16:06;7.10;99.90
20498;DHT22;10407;53.238;10.448;2022-11-14T08:18:35;7.20;99.90
20498;DHT22;10407;53.238;10.448;2022-11-14T08:21:06;7.20;99.90
20498;DHT22;10407;53.238;10.448;2022-11-14T08:23:33;7.10;99.90
20498;DHT22;10407;53.238;10.448;2022-11-14T08:26:01;7.20;99.90
20498;DHT22;10407;53.238;10.448;2022-11-14T08:28:28;7.20;99.90
20498;DHT22;10407;53.238;10.448;2022-11-14T08:31:03;7.30;99.90
20498;DHT22;10407;53.238;10.448;2022-11-14T08:33:31;7.30;99.90
20498;DHT22;10407;53.238;10.448;2022-11-14T08:36:03;7.40;99.90
20498;DHT22;10407;53.238;10.448;2022-11-14T08:38:31;7.50;99.90
20498;DHT22;10407;53.238;10.448;2022-11-14T08:41:00;7.40;99.90
20498;DHT22;10407;53.238;10.448;2022-11-14T08:43:33;7.40;99.90
20498;DHT22;10407;53.238;10.448;2022-11-14T08:45:59;7.20;99.90
20498;DHT22;10407;53.238;10.448;2022-11-14T08:48:28;7.20;99.90
20498;DHT22;10407;53.238;10.448;2022-11-14T08:50:55;7.40;99.90
20498;DHT22;10407;53.238;10.448;2022-11-14T08:53:23;7.40;99.90
20498;DHT22;10407;53.238;10.448;2022-11-14T08:55:50;7.30;99.90
20498;DHT22;10407;53.238;10.448;2022-11-14T08:58:18;7.30;99.90
20498;DHT22;10407;53.238;10.448;2022-11-14T09:00:45;7.40;99.90
20498;DHT22;10407;53.238;10.448;2022-11-14T09:03:13;7.30;99.90
20498;DHT22;10407;53.238;10.448;2022-11-14T09:05:41;7.30;99.90
20498;DHT22;10407;53.238;10.448;2022-11-14T09:08:10;7.50;99.90
20498;DHT22;10407;53.238;10.448;2022-11-14T09:10:38;7.20;99.90
20498;DHT22;10407;53.238;10.448;2022-11-14T09:13:05;7.40;99.90
20498;DHT22;10407;53.238;10.448;2022-11-14T09:15:33;7.30;99.90
20498;DHT22;10407;53.238;10.448;2022-11-14T09:18:01;7.50;99.90
20498;DHT22;10407;53.238;10.448;2022-11-14T09:20:28;7.50;99.90
20498;DHT22;10407;53.238;10.448;2022-11-14T09:22:58;7.50;99.90
20498;DHT22;10407;53.238;10.448;2022-11-14T09:25:26;7.60;99.90
20498;DHT22;10407;53.238;10.448;2022-11-14T09:27:55;7.40;99.90
20498;DHT22;10407;53.238;10.448;2022-11-14T09:30:23;7.30;99.90
20498;DHT22;10407;53.238;10.448;2022-11-14T09:32:50;7.40;99.90
20498;DHT22;10407;53.238;10.448;2022-11-14T09:35:18;7.50;99.90
20498;DHT22;10407;53.238;10.448;2022-11-14T09:37:45;7.60;99.90
20498;DHT22;10407;53.238;10.448;2022-11-14T09:40:13;7.40;99.90
20498;DHT22;10407;53.238;10.448;2022-11-14T09:45:23;7.50;99.90
20498;DHT22;10407;53.238;10.448;2022-11-14T09:47:54;7.50;99.90
20498;DHT22;10407;53.238;10.448;2022-11-14T09:50:31;7.70;99.90
20498;DHT22;10407;53.238;10.448;2022-11-14T09:53:04;7.80;99.90
20498;DHT22;10407;53.238;10.448;2022-11-14T09:55:32;7.80;99.90
20498;DHT22;10407;53.238;10.448;2022-11-14T09:58:01;7.80;99.90
20498;DHT22;10407;53.238;10.448;2022-11-14T10:00:38;7.80;99.90
20498;DHT22;10407;53.238;10.448;2022-11-14T10:12:41;8.00;99.90
20498;DHT22;10407;53.238;10.448;2022-11-14T10:22:53;8.00;99.90
20498;DHT22;10407;53.238;10.448;2022-11-14T10:25:26;8.10;99.90
20498;DHT22;10407;53.238;10.448;2022-11-14T10:28:05;8.20;99.90
20498;DHT22;10407;53.238;10.448;2022-11-14T10:30:39;8.30;99.90
20498;DHT22;10407;53.238;10.448;2022-11-14T10:38:55;8.10;99.90
20498;DHT22;10407;53.238;10.448;2022-11-14T10:41:24;8.30;99.90
20498;DHT22;10407;53.238;10.448;2022-11-14T10:43:53;8.50;99.90
20498;DHT22;10407;53.238;10.448;2022-11-14T10:46:27;8.40;99.90
20498;DHT22;10407;53.238;10.448;2022-11-14T10:48:55;8.20;99.90
20498;DHT22;10407;53.238;10.448;2022-11-14T10:54:14;8.50;99.90
20498;DHT22;10407;53.238;10.448;2022-11-14T10:56:54;8.40;99.90
20498;DHT22;10407;53.238;10.448;2022-11-14T10:59:18;8.50;99.90
20498;DHT22;10407;53.238;10.448;2022-11-14T11:01:54;8.80;99.90
20498;DHT22;10407;53.238;10.448;2022-11-14T11:09:40;9.00;99.90
20498;DHT22;10407;53.238;10.448;2022-11-14T11:12:47;9.20;99.90
20498;DHT22;10407;53.238;10.448;2022-11-14T11:15:20;9.30;99.90
20498;DHT22;10407;53.238;10.448;2022-11-14T11:18:21;9.20;99.90
20498;DHT22;10407;53.238;10.448;2022-11-14T11:20:38;9.20;99.90
20498;DHT22;10407;53.238;10.448;2022-11-14T11:25:38;9.20;99.90
20498;DHT22;10407;53.238;10.448;2022-11-14T11:28:22;9.10;99.90
20498;DHT22;10407;53.238;10.448;2022-11-14T11:31:00;9.10;99.90
20498;DHT22;10407;53.238;10.448;2022-11-14T11:33:29;9.40;99.90
20498;DHT22;10407;53.238;10.448;2022-11-14T11:36:12;9.20;99.90
20498;DHT22;10407;53.238;10.448;2022-11-14T11:38:40;9.40;99.90
20498;DHT22;10407;53.238;10.448;2022-11-14T11:41:29;9.40;99.90
20498;DHT22;10407;53.238;10.448;2022-11-14T11:43:59;9.40;99.90
20498;DHT22;10407;53.238;10.448;2022-11-14T11:49:22;9.30;99.90
20498;DHT22;10407;53.238;10.448;2022-11-14T11:51:46;9.30;99.90
20498;DHT22;10407;53.238;10.448;2022-11-14T11:54:18;9.30;99.90
20498;DHT22;10407;53.238;10.448;2022-11-14T11:56:50;9.30;99.90
20498;DHT22;10407;53.238;10.448;2022-11-14T11:59:20;9.40;99.90
20498;DHT22;10407;53.238;10.448;2022-11-14T12:01:50;9.40;99.90
20498;DHT22;10407;53.238;10.448;2022-11-14T12:04:18;9.30;99.90
20498;DHT22;10407;53.238;10.448;2022-11-14T12:06:52;9.40;99.90
20498;DHT22;10407;53.238;10.448;2022-11-14T12:09:21;9.50;99.90
20498;DHT22;10407;53.238;10.448;2022-11-14T12:11:55;9.50;99.90
20498;DHT22;10407;53.238;10.448;2022-11-14T12:26:10;9.60;99.90
20498;DHT22;10407;53.238;10.448;2022-11-14T12:28:57;9.70;99.90
20498;DHT22;10407;53.238;10.448;2022-11-14T12:31:26;9.70;99.90
20498;DHT22;10407;53.238;10.448;2022-11-14T12:34:00;9.80;99.90
20498;DHT22;10407;53.238;10.448;2022-11-14T12:36:31;9.70;99.90
20498;DHT22;10407;53.238;10.448;2022-11-14T12:39:00;9.70;99.90
20498;DHT22;10407;53.238;10.448;2022-11-14T12:41:31;9.70;99.90
20498;DHT22;10407;53.238;10.448;2022-11-14T12:58:21;9.60;99.90
20498;DHT22;10407;53.238;10.448;2022-11-14T13:06:32;9.70;99.90
20498;DHT22;10407;53.238;10.448;2022-11-14T13:09:24;9.60;99.90
20498;DHT22;10407;53.238;10.448;2022-11-14T13:11:49;9.60;99.90
20498;DHT22;10407;53.238;10.448;2022-11-14T13:14:49;9.60;99.90
20498;DHT22;10407;53.238;10.448;2022-11-14T13:17:35;9.70;99.90
20498;DHT22;10407;53.238;10.448;2022-11-14T13:20:30;9.70;99.90
20498;DHT22;10407;53.238;10.448;2022-11-14T13:28:46;9.70;99.90
20498;DHT22;10407;53.238;10.448;2022-11-14T13:34:38;9.70;99.90
20498;DHT22;10407;53.238;10.448;2022-11-14T13:39:53;9.70;99.90
20498;DHT22;10407;53.238;10.448;2022-11-14T13:45:03;9.60;99.90
20498;DHT22;10407;53.238;10.448;2022-11-14T13:47:57;9.60;99.90
20498;DHT22;10407;53.238;10.448;2022-11-14T13:50:37;9.60;99.90
20498;DHT22;10407;53.238;10.448;2022-11-14T13:53:15;9.60;99.90
20498;DHT22;10407;53.238;10.448;2022-11-14T14:01:14;9.60;99.90
20498;DHT22;10407;53.238;10.448;2022-11-14T14:06:32;9.60;99.90
20498;DHT22;10407;53.238;10.448;2022-11-14T14:11:47;9.50;99.90
20498;DHT22;10407;53.238;10.448;2022-11-14T14:17:10;9.50;99.90
20498;DHT22;10407;53.238;10.448;2022-11-14T14:28:14;9.40;99.90
20498;DHT22;10407;53.238;10.448;2022-11-14T14:30:39;9.40;99.90
20498;DHT22;10407;53.238;10.448;2022-11-14T14:33:14;9.40;99.90
20498;DHT22;10407;53.238;10.448;2022-11-14T14:35:51;9.40;99.90
20498;DHT22;10407;53.238;10.448;2022-11-14T14:38:26;9.30;99.90
20498;DHT22;10407;53.238;10.448;2022-11-14T14:40:55;9.30;99.90
20498;DHT22;10407;53.238;10.448;2022-11-14T14:43:31;9.30;99.90
20498;DHT22;10407;53.238;10.448;2022-11-14T14:45:59;9.30;99.90
20498;DHT22;10407;53.238;10.448;2022-11-14T14:48:29;9.30;99.90
20498;DHT22;10407;53.238;10.448;2022-11-14T14:50:58;9.20;99.90
20498;DHT22;10407;53.238;10.448;2022-11-14T14:53:33;9.20;99.90
20498;DHT22;10407;53.238;10.448;2022-11-14T14:56:04;9.20;99.90
20498;DHT22;10407;53.238;10.448;2022-11-14T14:58:33;9.10;99.90
20498;DHT22;10407;53.238;10.448;2022-11-14T15:01:05;9.00;99.90
20498;DHT22;10407;53.238;10.448;2022-11-14T15:03:35;8.90;99.90
20498;DHT22;10407;53.238;10.448;2022-11-14T15:06:29;8.90;99.90
20498;DHT22;10407;53.238;10.448;2022-11-14T15:08:59;8.90;99.90
20498;DHT22;10407;53.238;10.448;2022-11-14T15:11:27;8.90;99.90
20498;DHT22;10407;53.238;10.448;2022-11-14T15:13:57;8.80;99.90
20498;DHT22;10407;53.238;10.448;2022-11-14T15:16:25;8.70;99.90
20498;DHT22;10407;53.238;10.448;2022-11-14T15:18:55;8.70;99.90
20498;DHT22;10407;53.238;10.448;2022-11-14T15:21:26;8.50;99.90
20498;DHT22;10407;53.238;10.448;2022-11-14T15:24:11;8.50;99.90
20498;DHT22;10407;53.238;10.448;2022-11-14T15:26:31;8.40;99.90
20498;DHT22;10407;53.238;10.448;2022-11-14T15:31:48;8.40;99.90
20498;DHT22;10407;53.238;10.448;2022-11-14T15:34:31;8.40;99.90
20498;DHT22;10407;53.238;10.448;2022-11-14T15:39:40;8.00;99.90
20498;DHT22;10407;53.238;10.448;2022-11-14T15:44:54;7.90;99.90
20498;DHT22;10407;53.238;10.448;2022-11-14T15:47:26;7.80;99.90
20498;DHT22;10407;53.238;10.448;2022-11-14T15:50:21;7.90;99.90
20498;DHT22;10407;53.238;10.448;2022-11-14T15:52:48;7.90;99.90
20498;DHT22;10407;53.238;10.448;2022-11-14T15:55:19;7.90;99.90
20498;DHT22;10407;53.238;10.448;2022-11-14T15:57:46;8.00;99.90
20498;DHT22;10407;53.238;10.448;2022-11-14T16:00:15;8.00;99.90
20498;DHT22;10407;53.238;10.448;2022-11-14T16:02:55;8.00;99.90
20498;DHT22;10407;53.238;10.448;2022-11-14T16:05:29;8.00;99.90
20498;DHT22;10407;53.238;10.448;2022-11-14T16:07:57;7.90;99.90
20498;DHT22;10407;53.238;10.448;2022-11-14T16:10:26;7.90;99.90
20498;DHT22;10407;53.238;10.448;2022-11-14T16:12:54;8.00;99.90
20498;DHT22;10407;53.238;10.448;2022-11-14T16:15:21;8.00;99.90
20498;DHT22;10407;53.238;10.448;2022-11-14T16:17:49;8.00;99.90
20498;DHT22;10407;53.238;10.448;2022-11-14T16:20:19;8.10;99.90
20498;DHT22;10407;53.238;10.448;2022-11-14T16:22:48;8.10;99.90
20498;DHT22;10407;53.238;10.448;2022-11-14T16:25:20;8.00;99.90
20498;DHT22;10407;53.238;10.448;2022-11-14T16:27:48;8.00;99.90
20498;DHT22;10407;53.238;10.448;2022-11-14T16:30:17;7.90;99.90
20498;DHT22;10407;53.238;10.448;2022-11-14T16:32:47;8.00;99.90
20498;DHT22;10407;53.238;10.448;2022-11-14T16:35:19;7.90;99.90
20498;DHT22;10407;53.238;10.448;2022-11-14T16:37:48;8.00;99.90
20498;DHT22;10407;53.238;10.448;2022-11-14T16:40:21;8.10;99.90
20498;DHT22;10407;53.238;10.448;2022-11-14T16:42:58;8.10;99.90
20498;DHT22;10407;53.238;10.448;2022-11-14T16:45:26;8.00;99.90
20498;DHT22;10407;53.238;10.448;2022-11-14T16:47:54;8.00;99.90
20498;DHT22;10407;53.238;10.448;2022-11-14T16:50:21;8.00;99.90
20498;DHT22;10407;53.238;10.448;2022-11-14T16:52:49;8.00;99.90
20498;DHT22;10407;53.238;10.448;2022-11-14T16:55:16;8.00;99.90
20498;DHT22;10407;53.238;10.448;2022-11-14T16:57:44;8.00;99.90
20498;DHT22;10407;53.238;10.448;2022-11-14T17:00:12;8.00;99.90
20498;DHT22;10407;53.238;10.448;2022-11-14T17:02:40;8.00;99.90
20498;DHT22;10407;53.238;10.448;2022-11-14T17:05:08;8.00;99.90
20498;DHT22;10407;53.238;10.448;2022-11-14T17:07:36;8.00;99.90
20498;DHT22;10407;53.238;10.448;2022-11-14T17:10:05;7.90;99.90
20498;DHT22;10407;53.238;10.448;2022-11-14T17:12:33;7.90;99.90
20498;DHT22;10407;53.238;10.448;2022-11-14T17:15:01;7.80;99.90
20498;DHT22;10407;53.238;10.448;2022-11-14T17:17:29;7.70;99.90
20498;DHT22;10407;53.238;10.448;2022-11-14T17:19:57;7.70;99.90
20498;DHT22;10407;53.238;10.448;2022-11-14T17:22:25;7.60;99.90
20498;DHT22;10407;53.238;10.448;2022-11-14T17:24:53;7.70;99.90
20498;DHT22;10407;53.238;10.448;2022-11-14T17:27:20;7.80;99.90
20498;DHT22;10407;53.238;10.448;2022-11-14T17:29:48;7.80;99.90
20498;DHT22;10407;53.238;10.448;2022-11-14T17:32:17;7.80;99.90
20498;DHT22;10407;53.238;10.448;2022-11-14T17:34:44;7.80;99.90
20498;DHT22;10407;53.238;10.448;2022-11-14T17:37:12;7.70;99.90
20498;DHT22;10407;53.238;10.448;2022-11-14T17:39:39;7.70;99.90
20498;DHT22;10407;53.238;10.448;2022-11-14T17:42:07;7.70;99.90
20498;DHT22;10407;53.238;10.448;2022-11-14T17:44:34;7.80;99.90